createdAt,value
2018-07-04T00:02:30.931Z,3.43
2018-07-04T00:05:11.228Z,4.33
2018-07-04T00:07:51.767Z,3.83
2018-07-04T00:10:32.121Z,4.33
2018-07-04T00:13:12.745Z,3.40
2018-07-04T00:15:53.302Z,3.90
2018-07-04T00:18:33.568Z,4.10
2018-07-04T00:21:13.938Z,5.50
2018-07-04T00:23:54.193Z,9.00
2018-07-04T00:26:34.388Z,2.97
2018-07-04T00:29:14.653Z,2.97
2018-07-04T00:31:55.181Z,5.20
2018-07-04T00:34:35.401Z,6.73
2018-07-04T00:37:15.786Z,3.47
2018-07-04T00:39:55.979Z,5.07
2018-07-04T00:42:36.401Z,4.93
2018-07-04T00:45:16.476Z,4.80
2018-07-04T00:47:56.675Z,3.33
2018-07-04T00:50:36.897Z,5.53
2018-07-04T00:53:17.277Z,6.40
2018-07-04T00:55:57.994Z,3.60
2018-07-04T00:58:38.139Z,4.50
2018-07-04T01:01:18.465Z,5.13
2018-07-04T01:03:58.739Z,4.83
2018-07-04T01:06:39.043Z,4.80
2018-07-04T01:09:19.085Z,5.70
2018-07-04T01:11:59.455Z,5.33
2018-07-04T01:14:39.811Z,6.30
2018-07-04T01:17:20.221Z,4.50
2018-07-04T01:20:00.681Z,4.33
2018-07-04T01:22:41.009Z,6.33
2018-07-04T01:25:21.465Z,5.07
2018-07-04T01:28:01.687Z,3.90
2018-07-04T01:30:41.949Z,4.73
2018-07-04T01:33:22.455Z,5.40
2018-07-04T01:36:02.723Z,3.57
2018-07-04T01:38:43.113Z,6.10
2018-07-04T01:41:23.433Z,6.33
2018-07-04T01:44:03.741Z,7.87
2018-07-04T01:46:44.042Z,4.40
2018-07-04T01:49:24.283Z,6.03
2018-07-04T01:52:04.481Z,4.43
2018-07-04T01:54:44.833Z,5.60
2018-07-04T01:57:25.181Z,5.90
2018-07-04T02:00:05.467Z,3.53
2018-07-04T02:02:45.663Z,4.87
2018-07-04T02:05:25.761Z,5.00
2018-07-04T02:08:05.964Z,4.00
2018-07-04T02:10:46.258Z,5.80
2018-07-04T02:13:26.558Z,4.07
2018-07-04T02:16:06.945Z,7.80
2018-07-04T02:18:47.016Z,5.40
2018-07-04T02:21:27.343Z,6.40
2018-07-04T02:24:07.851Z,4.00
2018-07-04T02:26:48.007Z,5.90
2018-07-04T02:29:28.224Z,4.47
2018-07-04T02:32:08.506Z,4.90
2018-07-04T02:34:48.619Z,6.20
2018-07-04T02:37:28.791Z,5.70
2018-07-04T02:40:09.085Z,4.50
2018-07-04T02:42:49.439Z,7.00
2018-07-04T02:45:29.556Z,6.47
2018-07-04T02:48:09.970Z,4.57
2018-07-04T02:50:50.340Z,4.40
2018-07-04T02:53:30.439Z,4.80
2018-07-04T02:56:10.693Z,5.40
2018-07-04T02:58:51.185Z,5.40
2018-07-04T03:01:32.181Z,5.63
2018-07-04T03:04:12.668Z,3.83
2018-07-04T03:06:53.330Z,5.67
2018-07-04T03:09:33.972Z,4.90
2018-07-04T03:12:14.534Z,6.53
2018-07-04T03:14:55.046Z,5.00
2018-07-04T03:17:35.871Z,7.43
2018-07-04T03:20:16.325Z,6.63
2018-07-04T03:22:56.802Z,6.30
2018-07-04T03:25:37.584Z,9.13
2018-07-04T03:28:18.759Z,8.77
2018-07-04T03:30:59.507Z,4.87
2018-07-04T03:33:40.475Z,5.57
2018-07-04T03:36:21.647Z,5.97
2018-07-04T03:39:02.957Z,7.57
2018-07-04T03:41:43.882Z,7.00
2018-07-04T03:44:24.481Z,7.63
2018-07-04T03:47:05.232Z,5.57
2018-07-04T03:49:46.663Z,6.80
2018-07-04T03:52:27.913Z,5.30
2018-07-04T03:55:08.778Z,6.17
2018-07-04T03:57:49.264Z,6.07
2018-07-04T04:00:30.172Z,7.83
2018-07-04T04:03:11.048Z,9.60
2018-07-04T04:05:51.621Z,8.47
2018-07-04T04:08:32.768Z,7.13
2018-07-04T04:11:13.580Z,9.27
2018-07-04T04:13:53.907Z,4.53
2018-07-04T04:16:34.827Z,6.60
2018-07-04T04:19:20.120Z,6.33
2018-07-04T04:22:00.800Z,5.63
2018-07-04T04:24:41.536Z,6.10
2018-07-04T04:27:22.634Z,6.67
2018-07-04T04:30:03.792Z,6.00
2018-07-04T04:32:44.320Z,7.73
2018-07-04T04:35:24.872Z,10.13
2018-07-04T04:38:05.474Z,9.57
2018-07-04T04:40:46.430Z,10.67
2018-07-04T04:43:27.378Z,9.90
2018-07-04T04:46:07.960Z,9.90
2018-07-04T04:48:49.891Z,8.20
2018-07-04T04:51:30.312Z,5.97
2018-07-04T04:54:11.374Z,6.27
2018-07-04T04:56:51.866Z,7.10
2018-07-04T04:59:32.329Z,7.33
2018-07-04T05:02:12.945Z,8.17
2018-07-04T05:04:53.620Z,7.80
2018-07-04T05:07:33.921Z,9.87
2018-07-04T05:10:14.768Z,9.87
2018-07-04T05:12:55.622Z,9.20
2018-07-04T05:15:36.680Z,8.23
2018-07-04T05:18:17.554Z,8.63
2018-07-04T05:20:58.633Z,10.30
2018-07-04T05:23:39.132Z,6.60
2018-07-04T05:26:20.082Z,6.83
2018-07-04T05:29:00.898Z,8.10
2018-07-04T05:31:41.588Z,7.23
2018-07-04T05:34:22.750Z,10.73
2018-07-04T05:37:03.700Z,7.93
2018-07-04T05:39:44.254Z,8.30
2018-07-04T05:42:24.568Z,9.83
2018-07-04T05:45:05.166Z,8.20
2018-07-04T05:47:45.770Z,9.60
2018-07-04T05:50:26.294Z,10.67
2018-07-04T05:53:06.790Z,9.03
2018-07-04T05:55:47.573Z,11.37
2018-07-04T05:58:28.584Z,9.33
2018-07-04T06:01:09.415Z,14.53
2018-07-04T06:03:49.872Z,10.43
2018-07-04T06:06:30.374Z,6.50
2018-07-04T06:09:11.265Z,10.37
2018-07-04T06:11:51.951Z,7.33
2018-07-04T06:14:32.635Z,8.43
2018-07-04T06:17:13.087Z,7.37
2018-07-04T06:19:53.572Z,6.63
2018-07-04T06:22:34.052Z,8.43
2018-07-04T06:25:14.603Z,7.77
2018-07-04T06:27:55.234Z,12.50
2018-07-04T06:30:35.907Z,8.13
2018-07-04T06:33:16.422Z,12.80
2018-07-04T06:35:57.120Z,7.23
2018-07-04T06:38:25.622Z,11.07
2018-07-04T06:40:53.833Z,11.27
2018-07-04T06:43:21.938Z,11.47
2018-07-04T06:45:50.685Z,8.83
2018-07-04T06:48:18.924Z,11.53
2018-07-04T06:50:47.179Z,13.17
2018-07-04T06:53:15.625Z,11.53
2018-07-04T06:55:43.715Z,13.60
2018-07-04T06:58:12.063Z,10.23
2018-07-04T07:00:40.370Z,15.37
2018-07-04T07:03:21.252Z,8.37
2018-07-04T07:06:01.839Z,9.37
2018-07-04T07:08:42.494Z,6.50
2018-07-04T07:11:23.733Z,7.87
2018-07-04T07:14:04.171Z,7.10
2018-07-04T07:16:44.936Z,6.87
2018-07-04T07:19:25.982Z,5.67
2018-07-04T07:22:06.538Z,9.10
2018-07-04T07:24:47.555Z,6.37
2018-07-04T07:27:28.792Z,7.77
2018-07-04T07:30:10.111Z,7.03
2018-07-04T07:32:50.979Z,7.60
2018-07-04T07:35:31.547Z,5.67
2018-07-04T07:38:12.413Z,7.53
2018-07-04T07:40:53.125Z,8.40
2018-07-04T07:43:33.647Z,6.23
2018-07-04T07:46:14.135Z,6.43
2018-07-04T07:48:54.828Z,7.93
2018-07-04T07:51:35.252Z,7.87
2018-07-04T07:54:15.983Z,6.57
2018-07-04T07:56:56.550Z,6.70
2018-07-04T07:59:37.577Z,8.17
2018-07-04T08:02:18.447Z,6.63
2018-07-04T08:04:58.780Z,6.33
2018-07-04T08:07:39.145Z,7.17
2018-07-04T08:10:19.797Z,6.03
2018-07-04T08:13:00.719Z,6.13
2018-07-04T08:15:41.286Z,6.13
2018-07-04T08:18:21.979Z,7.27
2018-07-04T08:21:02.645Z,7.13
2018-07-04T08:23:43.205Z,6.77
2018-07-04T08:26:23.706Z,6.97
2018-07-04T08:29:04.766Z,5.60
2018-07-04T08:31:45.775Z,7.40
2018-07-04T08:34:26.364Z,5.73
2018-07-04T08:37:07.133Z,5.83
2018-07-04T08:39:47.654Z,5.77
2018-07-04T08:42:28.466Z,3.83
2018-07-04T08:45:09.029Z,5.40
2018-07-04T08:47:49.707Z,6.43
2018-07-04T08:50:30.495Z,6.17
2018-07-04T08:53:11.110Z,8.03
2018-07-04T08:55:51.601Z,7.17
2018-07-04T08:58:32.249Z,7.93
2018-07-04T09:01:12.917Z,7.67
2018-07-04T09:03:53.463Z,6.83
2018-07-04T09:06:34.193Z,5.70
2018-07-04T09:09:15.103Z,5.80
2018-07-04T09:11:56.575Z,7.60
2018-07-04T09:14:37.347Z,8.60
2018-07-04T09:17:17.957Z,4.27
2018-07-04T09:19:58.755Z,5.10
2018-07-04T09:22:39.179Z,6.53
2018-07-04T09:25:19.922Z,4.13
2018-07-04T09:28:00.751Z,5.67
2018-07-04T09:30:41.428Z,4.50
2018-07-04T09:33:22.210Z,4.47
2018-07-04T09:36:02.758Z,5.43
2018-07-04T09:38:43.320Z,3.97
2018-07-04T09:41:24.071Z,4.87
2018-07-04T09:44:04.589Z,8.20
2018-07-04T09:46:45.070Z,5.33
2018-07-04T09:49:25.679Z,4.83
2018-07-04T09:52:06.277Z,6.40
2018-07-04T09:54:46.671Z,8.63
2018-07-04T09:57:27.323Z,5.77
2018-07-04T10:00:08.109Z,7.40
2018-07-04T10:02:48.600Z,6.17
2018-07-04T10:05:29.128Z,8.45
2018-07-04T10:08:10.325Z,5.92
2018-07-04T10:10:51.008Z,5.45
2018-07-04T10:13:31.357Z,5.28
2018-07-04T10:16:11.751Z,4.83
2018-07-04T10:18:52.631Z,5.87
2018-07-04T10:21:33.386Z,7.58
2018-07-04T10:24:14.119Z,9.78
2018-07-04T10:26:55.248Z,8.08
2018-07-04T10:29:36.002Z,4.95
2018-07-04T10:32:16.714Z,8.35
2018-07-04T10:34:57.625Z,8.10
2018-07-04T10:37:38.359Z,5.47
2018-07-04T10:40:19.002Z,4.92
2018-07-04T10:43:00.239Z,9.13
2018-07-04T10:45:41.420Z,5.78
2018-07-04T10:48:22.276Z,6.28
2018-07-04T10:51:03.226Z,7.42
2018-07-04T10:53:44.064Z,4.33
2018-07-04T10:56:24.664Z,4.60
2018-07-04T10:59:05.805Z,4.20
2018-07-04T11:01:46.107Z,5.87
2018-07-04T11:04:26.863Z,4.12
2018-07-04T11:07:07.978Z,4.65
2018-07-04T11:09:48.714Z,4.12
2018-07-04T11:12:29.108Z,3.17
2018-07-04T11:15:09.917Z,3.58
2018-07-04T11:17:51.510Z,4.60
2018-07-04T11:20:32.265Z,3.00
2018-07-04T11:23:12.766Z,4.27
2018-07-04T11:25:53.862Z,3.93
2018-07-04T11:28:34.265Z,3.53
2018-07-04T11:31:14.976Z,4.47
2018-07-04T11:33:55.426Z,5.78
2018-07-04T11:36:36.714Z,3.67
2018-07-04T11:39:17.794Z,5.22
2018-07-04T11:41:58.573Z,3.80
2018-07-04T11:44:39.098Z,3.95
2018-07-04T11:47:07.492Z,3.22
2018-07-04T11:49:36.057Z,4.45
2018-07-04T11:52:04.629Z,4.58
2018-07-04T11:54:32.769Z,4.05
2018-07-04T11:57:01.588Z,4.12
2018-07-04T11:59:30.105Z,4.00
2018-07-04T12:01:59.008Z,7.75
2018-07-04T12:04:39.667Z,4.70
2018-07-04T12:07:08.984Z,6.95
2018-07-04T12:09:38.395Z,3.72
2018-07-04T12:12:06.771Z,3.25
2018-07-04T12:14:35.062Z,4.20
2018-07-04T12:17:03.480Z,5.67
2018-07-04T12:19:31.698Z,5.67
2018-07-04T12:22:00.209Z,4.12
2018-07-04T12:24:28.769Z,3.83
2018-07-04T12:26:56.943Z,3.60
2018-07-04T12:29:25.346Z,3.02
2018-07-04T12:31:53.580Z,2.87
2018-07-04T12:34:22.194Z,4.80
2018-07-04T12:36:50.403Z,5.67
2018-07-04T12:39:18.534Z,4.35
2018-07-04T12:41:46.645Z,3.25
2018-07-04T12:44:15.012Z,3.52
2018-07-04T12:46:43.444Z,5.85
2018-07-04T12:49:11.695Z,5.37
2018-07-04T12:51:39.992Z,6.40
2018-07-04T12:54:13.237Z,5.08
2018-07-04T12:56:53.856Z,2.80
2018-07-04T12:59:34.403Z,4.22
2018-07-04T13:02:15.172Z,3.92
2018-07-04T13:04:56.294Z,3.47
2018-07-04T13:07:36.576Z,4.28
2018-07-04T13:10:17.142Z,4.25
2018-07-04T13:12:57.709Z,3.72
2018-07-04T13:15:38.378Z,4.20
2018-07-04T13:18:19.212Z,2.73
2018-07-04T13:20:59.808Z,3.45
2018-07-04T13:23:40.464Z,3.47
2018-07-04T13:26:20.882Z,4.47
2018-07-04T13:29:01.529Z,5.58
2018-07-04T13:31:42.018Z,4.15
2018-07-04T13:34:22.677Z,4.30
2018-07-04T13:37:03.128Z,6.05
2018-07-04T13:39:43.739Z,4.22
2018-07-04T13:42:24.196Z,2.75
2018-07-04T13:45:05.066Z,3.87
2018-07-04T13:47:45.870Z,2.80
2018-07-04T13:50:26.295Z,4.85
2018-07-04T13:53:07.274Z,5.65
2018-07-04T13:55:48.189Z,3.15
2018-07-04T13:58:28.662Z,4.05
2018-07-04T14:01:09.057Z,3.12
2018-07-04T14:03:49.762Z,3.37
2018-07-04T14:06:30.296Z,5.90
2018-07-04T14:09:11.273Z,2.65
2018-07-04T14:11:52.023Z,4.23
2018-07-04T14:14:32.744Z,5.50
2018-07-04T14:17:13.285Z,4.75
2018-07-04T14:19:54.214Z,3.90
2018-07-04T14:22:34.794Z,3.08
2018-07-04T14:25:15.584Z,3.65
2018-07-04T14:27:56.648Z,3.40
2018-07-04T14:30:37.475Z,3.70
2018-07-04T14:33:18.142Z,3.17
2018-07-04T14:35:59.467Z,3.62
2018-07-04T14:38:40.238Z,3.37
2018-07-04T14:41:21.010Z,2.85
2018-07-04T14:44:01.754Z,3.40
2018-07-04T14:46:42.516Z,3.30
2018-07-04T14:49:23.428Z,3.33
2018-07-04T14:52:04.622Z,5.35
2018-07-04T14:54:45.402Z,4.42
2018-07-04T14:57:26.438Z,3.40
2018-07-04T15:00:07.012Z,3.80
2018-07-04T15:02:47.834Z,3.70
2018-07-04T15:05:28.580Z,5.17
2018-07-04T15:08:09.200Z,3.75
2018-07-04T15:10:49.912Z,4.00
2018-07-04T15:13:30.530Z,3.83
2018-07-04T15:16:11.194Z,3.45
2018-07-04T15:18:51.664Z,3.75
2018-07-04T15:21:32.520Z,4.83
2018-07-04T15:24:13.230Z,4.53
2018-07-04T15:26:54.204Z,5.53
2018-07-04T15:29:34.766Z,4.17
2018-07-04T15:32:15.493Z,4.35
2018-07-04T15:34:56.132Z,4.27
2018-07-04T15:37:36.579Z,5.70
2018-07-04T15:40:17.124Z,3.15
2018-07-04T15:42:58.274Z,4.95
2018-07-04T15:45:39.062Z,3.60
2018-07-04T15:48:19.810Z,4.83
2018-07-04T15:51:00.398Z,2.95
2018-07-04T15:53:42.030Z,5.67
2018-07-04T15:56:22.912Z,4.40
2018-07-04T15:59:03.671Z,4.60
2018-07-04T16:01:44.419Z,4.73
2018-07-04T16:04:25.326Z,3.67
2018-07-04T16:07:06.504Z,5.43
2018-07-04T16:09:47.416Z,4.80
2018-07-04T16:12:27.982Z,4.67
2018-07-04T16:15:09.143Z,3.50
2018-07-04T16:17:50.194Z,5.63
2018-07-04T16:20:30.692Z,6.47
2018-07-04T16:23:13.276Z,3.77
2018-07-04T16:25:54.770Z,3.80
2018-07-04T16:28:35.680Z,3.57
2018-07-04T16:31:16.697Z,5.00
2018-07-04T16:33:57.223Z,6.83
2018-07-04T16:36:37.985Z,4.35
2018-07-04T16:39:18.724Z,5.17
2018-07-04T16:41:59.712Z,6.03
2018-07-04T16:44:40.377Z,4.45
2018-07-04T16:47:21.221Z,4.03
2018-07-04T16:50:01.785Z,3.90
2018-07-04T16:52:43.124Z,5.25
2018-07-04T16:55:24.225Z,4.50
2018-07-04T16:58:05.731Z,5.53
2018-07-04T17:00:48.183Z,4.60
2018-07-04T17:03:29.375Z,5.05
2018-07-04T17:06:10.663Z,4.93
2018-07-04T17:08:52.393Z,4.40
2018-07-04T17:11:33.413Z,4.77
2018-07-04T17:14:14.117Z,3.77
2018-07-04T17:16:54.957Z,4.53
2018-07-04T17:19:35.651Z,4.17
2018-07-04T17:22:16.642Z,4.20
2018-07-04T17:24:57.190Z,5.27
2018-07-04T17:27:37.941Z,6.97
2018-07-04T17:30:18.683Z,3.87
2018-07-04T17:32:59.631Z,7.03
2018-07-04T17:35:40.501Z,5.23
2018-07-04T17:38:21.917Z,6.10
2018-07-04T17:41:02.908Z,4.40
2018-07-04T17:43:44.083Z,5.77
2018-07-04T17:46:24.801Z,3.47
2018-07-04T17:49:05.495Z,5.80
2018-07-04T17:51:47.025Z,4.00
2018-07-04T17:54:27.677Z,6.33
2018-07-04T17:57:08.526Z,6.13
2018-07-04T17:59:49.385Z,4.93
2018-07-04T18:02:30.267Z,5.60
2018-07-04T18:05:11.050Z,5.83
2018-07-04T18:07:51.749Z,7.23
2018-07-04T18:10:32.881Z,4.57
2018-07-04T18:13:13.854Z,4.30
2018-07-04T18:15:54.628Z,10.50
2018-07-04T18:18:36.052Z,7.27
2018-07-04T18:21:23.321Z,6.23
2018-07-04T18:24:05.432Z,4.90
2018-07-04T18:26:47.090Z,3.57
2018-07-04T18:29:28.265Z,4.17
2018-07-04T18:32:10.032Z,5.23
2018-07-04T18:34:51.179Z,4.50
2018-07-04T18:37:32.212Z,5.03
2018-07-04T18:40:13.172Z,3.73
2018-07-04T18:42:53.923Z,4.37
2018-07-04T18:45:34.421Z,5.90
2018-07-04T18:48:15.707Z,3.50
2018-07-04T18:50:56.863Z,5.87
2018-07-04T18:53:37.909Z,4.37
2018-07-04T18:56:19.159Z,3.67
2018-07-04T18:58:59.657Z,3.77
2018-07-04T19:01:40.638Z,5.60
2018-07-04T19:04:21.976Z,4.43
2018-07-04T19:07:02.833Z,3.27
2018-07-04T19:09:43.311Z,4.30
2018-07-04T19:12:24.946Z,3.67
2018-07-04T19:15:06.960Z,7.40
2018-07-04T19:17:48.102Z,4.07
2018-07-04T19:20:29.663Z,3.43
2018-07-04T19:23:10.819Z,3.57
2018-07-04T19:25:51.629Z,5.40
2018-07-04T19:28:32.225Z,3.60
2018-07-04T19:31:13.108Z,3.67
2018-07-04T19:33:54.203Z,3.70
2018-07-04T19:36:35.070Z,4.13
2018-07-04T19:39:16.100Z,5.47
2018-07-04T19:41:56.809Z,4.03
2018-07-04T19:44:37.552Z,3.83
2018-07-04T19:47:17.732Z,4.93
2018-07-04T19:49:58.200Z,4.50
2018-07-04T19:52:38.915Z,6.43
2018-07-04T19:55:19.211Z,4.87
2018-07-04T19:57:59.795Z,5.10
2018-07-04T20:00:43.197Z,4.10
2018-07-04T20:03:24.173Z,6.53
2018-07-04T20:06:04.437Z,4.20
2018-07-04T20:08:44.614Z,4.07
2018-07-04T20:11:24.905Z,4.57
2018-07-04T20:14:05.180Z,4.80
2018-07-04T20:16:45.381Z,8.30
2018-07-04T20:19:25.715Z,3.47
2018-07-04T20:22:05.874Z,4.33
2018-07-04T20:24:46.130Z,4.87
2018-07-04T20:27:26.241Z,5.90
2018-07-04T20:30:06.443Z,4.43
2018-07-04T20:32:47.066Z,4.57
2018-07-04T20:35:27.398Z,3.37
2018-07-04T20:38:07.539Z,5.87
2018-07-04T20:40:47.665Z,4.70
2018-07-04T20:43:28.002Z,3.90
2018-07-04T20:46:08.169Z,5.30
2018-07-04T20:48:48.523Z,4.30
2018-07-04T20:51:28.808Z,7.63
2018-07-04T20:54:09.026Z,4.63
2018-07-04T20:56:49.171Z,3.80
2018-07-04T20:59:29.448Z,6.47
2018-07-04T21:02:09.884Z,3.37
2018-07-04T21:04:50.183Z,4.20
2018-07-04T21:07:30.409Z,4.13
2018-07-04T21:10:10.835Z,5.03
2018-07-04T21:12:51.202Z,3.73
2018-07-04T21:15:31.423Z,4.47
2018-07-04T21:18:11.630Z,4.80
2018-07-04T21:20:52.165Z,3.93
2018-07-04T21:23:32.514Z,5.73
2018-07-04T21:26:12.874Z,4.90
2018-07-04T21:28:53.044Z,5.60
2018-07-04T21:31:33.489Z,4.50
2018-07-04T21:34:13.768Z,7.10
2018-07-04T21:36:54.132Z,8.27
2018-07-04T21:39:34.409Z,4.57
2018-07-04T21:42:14.627Z,3.50
2018-07-04T21:44:54.894Z,4.93
2018-07-04T21:47:35.040Z,7.97
2018-07-04T21:50:15.478Z,4.37
2018-07-04T21:52:55.684Z,7.23
2018-07-04T21:55:36.109Z,7.63
2018-07-04T21:58:16.837Z,6.50
2018-07-04T22:00:57.132Z,7.07
2018-07-04T22:03:37.577Z,5.23
2018-07-04T22:06:18.200Z,5.27
2018-07-04T22:08:58.764Z,4.70
2018-07-04T22:11:39.076Z,8.17
2018-07-04T22:14:19.776Z,6.63
2018-07-04T22:17:00.484Z,3.90
2018-07-04T22:19:40.804Z,3.70
2018-07-04T22:22:21.123Z,4.47
2018-07-04T22:25:01.424Z,4.63
2018-07-04T22:27:41.610Z,5.90
2018-07-04T22:30:22.176Z,3.50
2018-07-04T22:33:02.444Z,5.07
2018-07-04T22:35:42.670Z,6.30
2018-07-04T22:38:22.830Z,4.00
2018-07-04T22:41:03.124Z,7.10
2018-07-04T22:43:43.471Z,4.63
2018-07-04T22:46:23.726Z,3.83
2018-07-04T22:49:03.946Z,5.90
2018-07-04T22:51:44.639Z,6.33
2018-07-04T22:54:25.108Z,5.50
2018-07-04T22:57:05.683Z,5.97
2018-07-04T22:59:45.886Z,5.13
2018-07-04T23:02:26.160Z,4.00
2018-07-04T23:05:06.808Z,7.00
2018-07-04T23:07:47.179Z,3.37
2018-07-04T23:10:27.477Z,6.37
2018-07-04T23:13:07.505Z,3.93
2018-07-04T23:15:47.715Z,4.97
2018-07-04T23:18:28.072Z,5.70
2018-07-04T23:21:08.848Z,3.57
2018-07-04T23:23:49.664Z,5.17
2018-07-04T23:26:30.242Z,3.70
2018-07-04T23:29:10.448Z,5.40
2018-07-04T23:31:50.760Z,5.53
2018-07-04T23:34:31.075Z,3.67
2018-07-04T23:37:11.544Z,4.97
2018-07-04T23:39:51.934Z,4.30
2018-07-04T23:42:32.300Z,4.00
2018-07-04T23:45:12.492Z,4.40
2018-07-04T23:47:52.620Z,5.30
2018-07-04T23:50:32.924Z,4.20
2018-07-04T23:53:13.248Z,3.30
2018-07-04T23:55:53.546Z,3.53
2018-07-04T23:58:33.774Z,4.13
